Time;durP1;ratioP1;P1;durP2;ratioP2;P2;SDS_P1;SDS_P2;PMS_P1;PMS_P2;Temp;Humidity;BMP_temperature;BMP_pressure;BME280_temperature;BME280_humidity;BME280_pressure;Samples;Min_cycle;Max_cycle;Signal;HPM_P1;HPM_P2
2021/08/31 00:01:37;;;;;;;8.97;3.93;;;;;;;16.51;80.67;100196.73;126320;1099;104198;-79
2021/08/31 00:04:09;;;;;;;11.17;4.47;;;;;;;16.51;80.13;100200.25;126240;1099;104392;-79
2021/08/31 00:06:39;;;;;;;9.43;4.40;;;;;;;16.52;79.87;100194.09;126384;1096;104353;-79
2021/08/31 00:09:10;;;;;;;14.73;4.50;;;;;;;16.52;80.05;100204.69;126374;1096;104272;-79
2021/08/31 00:11:44;;;;;;;10.30;4.93;;;;;;;16.52;80.38;100202.03;126335;1096;104345;-77
2021/08/31 00:14:15;;;;;;;10.23;4.53;;;;;;;16.53;80.51;100206.47;126313;1096;104137;-78
2021/08/31 00:16:46;;;;;;;10.90;4.00;;;;;;;16.56;80.65;100202.05;126349;1099;104179;-79
2021/08/31 00:19:17;;;;;;;6.40;4.00;;;;;;;16.58;80.05;100209.15;126309;1099;104644;-78
2021/08/31 00:21:48;;;;;;;6.40;4.10;;;;;;;16.60;80.04;100212.69;126339;1099;104293;-79
2021/08/31 00:24:19;;;;;;;9.50;4.20;;;;;;;16.60;80.68;100212.69;126278;1099;104313;-79
2021/08/31 00:26:50;;;;;;;9.93;4.13;;;;;;;16.62;80.49;100216.22;126322;1098;104133;-79
2021/08/31 00:29:21;;;;;;;10.80;3.87;;;;;;;16.61;80.36;100211.81;126341;1099;104182;-77
2021/08/31 00:31:53;;;;;;;9.10;3.97;;;;;;;16.57;80.38;100217.96;126345;1099;104612;-80
2021/08/31 00:34:23;;;;;;;10.67;4.13;;;;;;;16.53;80.87;100217.06;126295;1099;104239;-80
2021/08/31 00:36:56;;;;;;;14.10;4.10;;;;;;;16.52;80.86;100219.70;126341;1099;104149;-79
2021/08/31 00:39:27;;;;;;;16.43;4.97;;;;;;;16.51;80.49;100218.80;126356;1099;104230;-79
2021/08/31 00:41:58;;;;;;;6.87;3.97;;;;;;;16.51;81.04;100223.22;126274;1099;104643;-79
2021/08/31 00:44:31;;;;;;;8.90;3.90;;;;;;;16.49;80.16;100214.38;126358;1098;104140;-78
2021/08/31 00:47:04;;;;;;;8.10;3.80;;;;;;;16.46;81.19;100220.53;126364;1098;104137;-79
2021/08/31 00:49:36;;;;;;;7.90;4.17;;;;;;;16.43;81.46;100219.63;126320;1097;104291;-79
2021/08/31 00:52:08;;;;;;;10.40;3.70;;;;;;;16.40;80.83;100212.55;126328;1099;104149;-78
2021/08/31 00:54:40;;;;;;;6.60;3.90;;;;;;;16.37;81.11;100212.52;126334;1099;104137;-79
2021/08/31 00:57:14;;;;;;;7.23;3.70;;;;;;;16.35;81.18;100207.21;126325;1099;104142;-79
2021/08/31 00:59:45;;;;;;;6.90;3.80;;;;;;;16.34;80.49;100215.14;126336;1099;104242;-79
2021/08/31 01:02:16;;;;;;;7.93;3.80;;;;;;;16.32;80.61;100211.61;126329;1099;104146;-80
2021/08/31 01:04:47;;;;;;;10.93;4.40;;;;;;;16.33;80.66;100216.00;126225;1097;104165;-79
2021/08/31 01:07:18;;;;;;;7.50;3.70;;;;;;;16.31;81.11;100213.38;126345;1099;104143;-80
2021/08/31 01:09:50;;;;;;;8.33;3.87;;;;;;;16.30;80.90;100219.54;126358;1099;104152;-78
2021/08/31 01:12:23;;;;;;;10.73;4.00;;;;;;;16.28;81.07;100215.09;126356;1098;104248;-79
2021/08/31 01:14:55;;;;;;;9.25;3.80;;;;;;;16.29;80.81;100211.58;126304;1099;104239;-78
2021/08/31 01:17:26;;;;;;;6.80;3.53;;;;;;;16.29;81.07;100217.75;126340;1098;104238;-79
2021/08/31 01:19:58;;;;;;;10.10;3.73;;;;;;;16.30;80.48;100218.66;126362;1099;104217;-79
2021/08/31 01:22:29;;;;;;;8.30;3.83;;;;;;;16.30;81.17;100226.61;126394;1099;104198;-79
2021/08/31 01:25:01;;;;;;;12.00;3.80;;;;;;;16.28;80.66;100225.69;126366;1098;104245;-79
2021/08/31 01:27:33;;;;;;;11.33;4.17;;;;;;;16.25;81.30;100226.56;126289;1099;108080;-78
2021/08/31 01:30:05;;;;;;;7.37;3.70;;;;;;;16.23;81.05;100228.30;126388;1096;104238;-79
2021/08/31 01:32:36;;;;;;;7.97;3.67;;;;;;;16.22;80.58;100231.84;126373;1096;104191;-79
2021/08/31 01:35:08;;;;;;;6.73;3.60;;;;;;;16.19;81.26;100234.45;126369;1096;104143;-79
2021/08/31 01:37:38;;;;;;;7.87;3.93;;;;;;;16.18;80.68;100233.55;126328;1099;104656;-78
2021/08/31 01:40:10;;;;;;;11.27;4.50;;;;;;;16.19;81.31;100231.81;126326;1099;104236;-79
2021/08/31 01:42:41;;;;;;;7.83;3.50;;;;;;;16.20;81.22;100227.39;126358;1099;104149;-79
2021/08/31 01:45:13;;;;;;;9.50;3.83;;;;;;;16.20;80.63;100230.04;126328;1099;104293;-79
2021/08/31 01:47:43;;;;;;;8.70;4.00;;;;;;;16.23;81.22;100227.42;126311;1099;104137;-81
2021/08/31 01:50:14;;;;;;;7.80;4.07;;;;;;;16.24;81.12;100230.08;126376;1096;104256;-79
2021/08/31 01:52:45;;;;;;;11.80;4.07;;;;;;;16.24;80.85;100229.20;126364;1096;104329;-79
2021/08/31 01:55:17;;;;;;;8.97;3.70;;;;;;;16.24;81.17;100229.20;126345;1099;104147;-79
2021/08/31 01:57:48;;;;;;;11.00;4.10;;;;;;;16.22;80.50;100226.55;126296;1096;104153;-78
2021/08/31 02:00:20;;;;;;;8.97;3.87;;;;;;;16.20;80.80;100233.56;126383;1099;104152;-78
2021/08/31 02:02:50;;;;;;;7.23;3.67;;;;;;;16.20;81.01;100232.69;126326;1099;104329;-79
2021/08/31 02:05:21;;;;;;;7.57;3.70;;;;;;;16.16;80.37;100230.02;126294;1099;104370;-79
2021/08/31 02:07:53;;;;;;;6.30;3.40;;;;;;;16.14;80.97;100242.36;126298;1096;104216;-78
2021/08/31 02:10:24;;;;;;;8.10;3.95;;;;;;;16.11;81.24;100234.39;126377;1096;104156;-78
2021/08/31 02:12:56;;;;;;;9.70;3.70;;;;;;;16.11;80.34;100244.07;126393;1096;104245;-80
2021/08/31 02:15:26;;;;;;;6.13;3.63;;;;;;;16.06;81.41;100232.56;126361;1096;104195;-80
2021/08/31 02:17:58;;;;;;;7.77;3.80;;;;;;;16.04;80.62;100237.84;126255;1099;104146;-79
2021/08/31 02:20:29;;;;;;;8.10;3.67;;;;;;;16.05;81.19;100230.78;126358;1099;104245;-78
2021/08/31 02:23:02;;;;;;;6.10;3.67;;;;;;;16.08;81.42;100237.02;126345;1099;104156;-78
2021/08/31 02:25:34;;;;;;;13.10;3.87;;;;;;;16.09;81.40;100238.76;126304;1099;104296;-80
2021/08/31 02:28:05;;;;;;;9.63;3.87;;;;;;;16.02;81.35;100239.59;126317;1099;103995;-79
2021/08/31 02:30:37;;;;;;;8.90;4.43;;;;;;;15.95;80.93;100243.05;126344;1099;104367;-79
2021/08/31 02:33:08;;;;;;;8.17;3.80;;;;;;;15.89;81.39;100246.51;126363;1099;104274;-79
2021/08/31 02:35:39;;;;;;;6.43;3.50;;;;;;;15.88;80.59;100251.78;126320;1099;104569;-78
2021/08/31 02:38:10;;;;;;;9.20;3.90;;;;;;;15.87;81.33;100242.97;126291;1099;104190;-79
2021/08/31 02:40:41;;;;;;;8.67;4.03;;;;;;;15.87;80.92;100244.73;126343;1099;104207;-79
2021/08/31 02:43:12;;;;;;;8.50;4.00;;;;;;;15.84;80.60;100250.00;126358;1099;104268;-79
2021/08/31 02:45:42;;;;;;;10.90;4.17;;;;;;;15.81;81.16;100246.42;126359;1099;104322;-79
2021/08/31 02:48:13;;;;;;;12.77;4.00;;;;;;;15.77;81.12;100246.41;126288;1099;104271;-78
2021/08/31 02:50:45;;;;;;;8.47;3.77;;;;;;;15.74;80.72;100246.34;126378;1098;104166;-78
2021/08/31 02:53:16;;;;;;;8.83;4.00;;;;;;;15.71;80.97;100241.90;126305;1099;104564;-79
2021/08/31 02:55:48;;;;;;;9.13;4.30;;;;;;;15.69;81.39;100245.39;126349;1097;104134;-78
2021/08/31 02:58:18;;;;;;;11.90;4.10;;;;;;;15.65;81.30;100247.13;126290;1098;104133;-80
2021/08/31 03:01:04;;;;;;;10.57;4.60;;;;;;;15.61;81.31;100243.57;126311;1099;104169;-79
2021/08/31 03:03:34;;;;;;;8.30;4.40;;;;;;;15.56;81.07;100247.89;126359;1099;104168;-79
2021/08/31 03:06:06;;;;;;;11.47;4.43;;;;;;;15.52;81.17;100253.13;126378;1099;104140;-79
2021/08/31 03:08:36;;;;;;;9.03;3.87;;;;;;;15.52;82.35;100253.13;126273;1099;105296;-80
2021/08/31 03:11:08;;;;;;;9.07;4.33;;;;;;;15.50;81.56;100254.88;126353;1098;104181;-77
2021/08/31 03:13:39;;;;;;;9.40;3.90;;;;;;;15.51;81.47;100256.67;126364;1099;104166;-78
2021/08/31 03:16:09;;;;;;;9.67;4.50;;;;;;;15.52;81.21;100266.35;126352;1099;104238;-79
2021/08/31 03:18:40;;;;;;;8.63;3.97;;;;;;;15.52;81.85;100271.64;126288;1099;104217;-79
2021/08/31 03:21:11;;;;;;;7.73;4.30;;;;;;;15.53;81.43;100270.78;126322;1099;104336;-78
2021/08/31 03:23:42;;;;;;;9.10;4.20;;;;;;;15.54;81.27;100268.16;126339;1098;104210;-78
2021/08/31 03:26:13;;;;;;;8.27;4.10;;;;;;;15.56;81.37;100270.82;126353;1099;104278;-77
2021/08/31 03:28:43;;;;;;;10.67;4.47;;;;;;;15.58;81.23;100274.36;126322;1096;104144;-79
2021/08/31 03:31:14;;;;;;;10.20;4.50;;;;;;;15.58;81.31;100274.36;126345;1099;104349;-79
2021/08/31 03:33:45;;;;;;;10.77;4.40;;;;;;;15.59;81.90;100276.14;126312;1096;104219;-79
2021/08/31 03:36:16;;;;;;;14.00;4.00;;;;;;;15.60;81.33;100281.45;126297;1099;104159;-79
2021/08/31 03:38:47;;;;;;;10.87;4.20;;;;;;;15.64;81.27;100283.28;126285;1099;104203;-79
2021/08/31 03:41:18;;;;;;;8.65;4.45;;;;;;;15.67;81.83;100284.17;126387;1099;104146;-79
2021/08/31 03:43:50;;;;;;;9.57;4.30;;;;;;;15.69;81.32;100278.04;126342;1099;104698;-78
2021/08/31 03:46:21;;;;;;;9.23;3.90;;;;;;;15.71;82.24;100280.70;126307;1099;104147;-78
2021/08/31 03:48:52;;;;;;;11.83;4.50;;;;;;;15.73;81.96;100282.47;126293;1099;104175;-78
2021/08/31 03:51:23;;;;;;;7.80;3.70;;;;;;;15.76;81.48;100286.92;126351;1096;104168;-78
2021/08/31 03:53:54;;;;;;;13.53;4.50;;;;;;;15.78;81.36;100288.76;126359;1099;104178;-78
2021/08/31 03:56:25;;;;;;;11.83;4.13;;;;;;;15.84;81.76;100284.39;126355;1096;104153;-79
2021/08/31 03:58:57;;;;;;;10.30;4.50;;;;;;;15.89;82.06;100290.61;126309;1096;104239;-78
2021/08/31 04:01:27;;;;;;;9.23;4.20;;;;;;;15.92;81.99;100290.64;126339;1099;104190;-79
2021/08/31 04:04:00;;;;;;;13.77;4.63;;;;;;;15.93;81.38;100292.43;126335;1098;104150;-79
2021/08/31 04:06:34;;;;;;;13.40;5.00;;;;;;;15.92;81.16;100296.81;126377;1099;104152;-78
2021/08/31 04:09:08;;;;;;;9.80;4.83;;;;;;;15.94;81.30;100294.19;126197;1099;105225;-79
2021/08/31 04:11:39;;;;;;;8.83;4.47;;;;;;;15.92;81.24;100302.11;126330;1096;104313;-79
2021/08/31 04:14:10;;;;;;;10.43;4.00;;;;;;;15.87;81.26;100300.30;126330;1096;104131;-79
2021/08/31 04:16:41;;;;;;;9.70;4.20;;;;;;;15.78;81.51;100296.69;126309;1099;104139;-80
2021/08/31 04:19:12;;;;;;;8.10;4.20;;;;;;;15.71;81.04;100302.73;126340;1096;104390;-79
2021/08/31 04:21:43;;;;;;;9.77;4.43;;;;;;;15.69;81.83;100299.20;126370;1099;104267;-79
2021/08/31 04:24:13;;;;;;;14.10;4.70;;;;;;;15.68;81.85;100302.70;126342;1099;104293;-79
2021/08/31 04:26:45;;;;;;;7.37;4.40;;;;;;;15.65;81.41;100305.31;126354;1099;104137;-80
2021/08/31 04:29:16;;;;;;;8.80;4.33;;;;;;;15.59;81.19;100305.23;126302;1099;105499;-80
2021/08/31 04:31:48;;;;;;;11.20;4.50;;;;;;;15.54;81.73;100305.18;126354;1099;104143;-79
2021/08/31 04:34:20;;;;;;;10.90;4.77;;;;;;;15.50;81.04;100302.48;126335;1099;104146;-80
2021/08/31 04:36:51;;;;;;;9.47;4.57;;;;;;;15.49;80.93;100300.69;126291;1099;104352;-79
2021/08/31 04:39:22;;;;;;;8.77;4.43;;;;;;;15.49;81.15;100308.63;126268;1097;104210;-79
2021/08/31 04:41:53;;;;;;;12.03;4.73;;;;;;;15.51;81.14;100309.55;126333;1099;104209;-79
2021/08/31 04:44:24;;;;;;;9.30;4.33;;;;;;;15.53;80.98;100303.39;126360;1099;104139;-79
2021/08/31 04:46:56;;;;;;;12.10;4.30;;;;;;;15.53;81.94;100299.88;126347;1099;104570;-80
2021/08/31 04:49:27;;;;;;;8.03;4.20;;;;;;;15.54;81.03;100307.83;126260;1098;104136;-79
2021/08/31 04:51:57;;;;;;;10.80;4.77;;;;;;;15.56;81.14;100308.72;126318;1099;104242;-79
2021/08/31 04:54:29;;;;;;;10.00;4.90;;;;;;;15.57;81.20;100304.34;126326;1099;104146;-79
2021/08/31 04:57:00;;;;;;;12.27;4.73;;;;;;;15.56;81.72;100298.14;126380;1099;104175;-81
2021/08/31 04:59:33;;;;;;;8.13;4.60;;;;;;;15.57;81.42;100305.22;126316;1099;104130;-79
2021/08/31 05:02:06;;;;;;;15.50;5.07;;;;;;;15.59;81.39;100305.23;126333;1099;104184;-79
2021/08/31 05:04:39;;;;;;;11.27;4.53;;;;;;;15.61;81.27;100307.05;126381;1099;104297;-77
2021/08/31 05:07:11;;;;;;;11.87;4.93;;;;;;;15.65;81.36;100302.67;126327;1099;104137;-78
2021/08/31 05:09:44;;;;;;;8.80;4.43;;;;;;;15.67;81.47;100297.39;126325;1099;104173;-80
2021/08/31 05:12:14;;;;;;;12.47;5.03;;;;;;;15.70;81.05;100306.24;126330;1099;119519;-78
2021/08/31 05:14:47;;;;;;;13.97;4.90;;;;;;;15.73;81.27;100300.98;126327;1097;104176;-79
2021/08/31 05:17:20;;;;;;;7.53;3.90;;;;;;;15.75;81.52;100309.85;126378;1098;104133;-80
2021/08/31 05:19:51;;;;;;;8.43;3.97;;;;;;;15.80;80.93;100304.65;126334;1097;104208;-78
2021/08/31 05:22:23;;;;;;;10.97;4.17;;;;;;;15.86;81.72;100306.45;126345;1099;104143;-78
2021/08/31 05:24:55;;;;;;;11.83;4.30;;;;;;;15.94;81.62;100315.35;126329;1099;104240;-78
2021/08/31 05:27:26;;;;;;;8.20;4.00;;;;;;;16.00;80.76;100315.42;126344;1099;104140;-79
2021/08/31 05:29:59;;;;;;;8.40;3.63;;;;;;;16.05;80.81;100319.02;126291;1099;104217;-79
2021/08/31 05:32:30;;;;;;;12.67;4.23;;;;;;;16.12;80.73;100319.97;126325;1096;110507;-79
2021/08/31 05:35:01;;;;;;;8.33;3.90;;;;;;;16.18;81.29;100325.32;126401;1096;104267;-79
2021/08/31 05:37:31;;;;;;;8.67;3.97;;;;;;;16.23;81.12;100317.42;126405;1096;104237;-77
2021/08/31 05:40:11;;;;;;;7.23;3.70;;;;;;;16.30;80.35;100317.50;126306;1096;104156;-79
2021/08/31 05:42:42;;;;;;;6.40;3.70;;;;;;;16.38;80.38;100317.57;126297;1099;104278;-79
2021/08/31 05:45:14;;;;;;;9.17;3.67;;;;;;;16.46;80.93;100322.94;126349;1099;104137;-80
2021/08/31 05:47:45;;;;;;;12.97;4.30;;;;;;;16.53;80.18;100323.01;126359;1099;104137;-79
2021/08/31 05:50:16;;;;;;;9.47;3.67;;;;;;;16.61;80.34;100319.52;126342;1099;104271;-79
2021/08/31 05:52:48;;;;;;;7.57;4.03;;;;;;;16.71;80.62;100326.67;126330;1096;104316;-79
2021/08/31 05:55:18;;;;;;;9.83;3.97;;;;;;;16.78;80.38;100327.59;126359;1096;104141;-78
2021/08/31 05:57:49;;;;;;;8.70;4.40;;;;;;;16.85;79.99;100327.66;126340;1096;104133;-79
2021/08/31 06:00:34;;;;;;;10.67;4.53;;;;;;;16.94;80.14;100321.58;126325;1099;104172;-79
2021/08/31 06:03:05;;;;;;;11.63;4.73;;;;;;;17.01;80.00;100319.84;126273;1099;104149;-79
2021/08/31 06:05:39;;;;;;;7.53;3.80;;;;;;;17.07;79.71;100323.41;126329;1099;104300;-78
2021/08/31 06:08:10;;;;;;;7.57;3.90;;;;;;;17.13;79.56;100322.58;126297;1099;104319;-79
2021/08/31 06:10:43;;;;;;;7.00;3.93;;;;;;;17.19;79.05;100324.39;126366;1099;104191;-79
2021/08/31 06:13:15;;;;;;;9.00;4.30;;;;;;;17.22;78.82;100325.28;126312;1096;104185;-78
2021/08/31 06:15:45;;;;;;;8.03;3.87;;;;;;;17.29;78.93;100322.67;126380;1096;104134;-79
2021/08/31 06:18:16;;;;;;;6.87;3.87;;;;;;;17.38;78.81;100333.33;126334;1096;104294;-80
2021/08/31 06:20:47;;;;;;;9.40;3.93;;;;;;;17.45;78.93;100328.93;126368;1096;104159;-81
2021/08/31 06:23:18;;;;;;;8.30;3.90;;;;;;;17.51;78.41;100334.27;126218;1099;104114;-79
2021/08/31 06:25:50;;;;;;;11.00;4.60;;;;;;;17.58;77.83;100336.95;126332;1099;104653;-77
2021/08/31 06:28:21;;;;;;;6.40;3.50;;;;;;;17.65;77.71;100335.20;126349;1099;104256;-79
2021/08/31 06:30:53;;;;;;;10.10;4.07;;;;;;;17.71;77.40;100331.70;126303;1099;104312;-78
2021/08/31 06:33:24;;;;;;;9.73;3.90;;;;;;;17.81;77.60;100335.27;126321;1099;104267;-79
2021/08/31 06:35:55;;;;;;;10.07;3.90;;;;;;;17.88;76.63;100335.33;126357;1099;104191;-79
2021/08/31 06:38:27;;;;;;;14.00;4.40;;;;;;;17.96;76.72;100336.22;126364;1098;104224;-80
2021/08/31 06:40:57;;;;;;;10.23;3.93;;;;;;;18.07;76.54;100335.37;126303;1099;104258;-78
2021/08/31 06:43:29;;;;;;;14.00;4.60;;;;;;;18.18;76.29;100341.59;126252;1099;105386;-78
2021/08/31 06:46:01;;;;;;;17.00;4.60;;;;;;;18.28;76.23;100343.39;126353;1099;104258;-79
2021/08/31 06:48:33;;;;;;;11.17;4.27;;;;;;;18.39;76.11;100340.75;126349;1098;104146;-78
2021/08/31 06:51:04;;;;;;;15.37;4.87;;;;;;;18.50;75.41;100340.77;126371;1099;104248;-79
2021/08/31 06:53:37;;;;;;;14.05;4.80;;;;;;;18.62;74.95;100340.77;126283;1099;104140;-80
2021/08/31 06:56:09;;;;;;;8.40;4.17;;;;;;;18.76;74.92;100339.86;126328;1099;104143;-78
2021/08/31 06:58:40;;;;;;;7.00;3.80;;;;;;;18.90;74.62;100343.45;126386;1097;104178;-80
2021/08/31 07:01:12;;;;;;;8.73;3.47;;;;;;;19.03;74.91;100347.85;126332;1098;104201;-79
2021/08/31 07:03:43;;;;;;;9.47;4.13;;;;;;;19.19;73.90;100350.48;126297;1098;104194;-79
2021/08/31 07:06:14;;;;;;;13.07;3.97;;;;;;;19.34;73.47;100345.13;126362;1099;104137;-78
2021/08/31 07:08:45;;;;;;;11.03;4.00;;;;;;;19.49;73.73;100346.84;126342;1099;104249;-80
2021/08/31 07:11:16;;;;;;;8.97;3.97;;;;;;;19.65;72.55;100354.77;126291;1099;104220;-79
2021/08/31 07:13:47;;;;;;;10.13;3.83;;;;;;;19.82;72.86;100346.75;126279;1099;104227;-79
2021/08/31 07:16:21;;;;;;;6.62;3.33;;;;;;;19.99;72.73;100354.66;126379;1097;104293;-78
2021/08/31 07:18:53;;;;;;;10.18;3.90;;;;;;;20.11;72.02;100352.80;126361;1099;104140;-78
2021/08/31 07:21:24;;;;;;;5.57;3.03;;;;;;;20.25;70.57;100346.52;126305;1099;104139;-78
2021/08/31 07:23:56;;;;;;;6.27;3.53;;;;;;;20.41;70.07;100348.20;126305;1099;104641;-77
2021/08/31 07:26:28;;;;;;;7.07;4.03;;;;;;;20.58;69.88;100344.50;126374;1096;104141;-78
2021/08/31 07:29:00;;;;;;;7.50;3.80;;;;;;;20.71;70.43;100347.98;126351;1096;104287;-79
2021/08/31 07:31:31;;;;;;;11.77;3.70;;;;;;;20.79;70.35;100339.03;126362;1096;104219;-77
2021/08/31 07:34:02;;;;;;;8.15;3.15;;;;;;;20.89;69.10;100334.48;126276;1096;104316;-79
2021/08/31 07:36:35;;;;;;;6.40;3.10;;;;;;;21.00;67.73;100345.05;126336;1099;104169;-78
2021/08/31 07:39:06;;;;;;;6.00;3.20;;;;;;;21.17;67.27;100340.42;126352;1099;104147;-79
2021/08/31 07:41:38;;;;;;;7.47;3.40;;;;;;;21.32;66.70;100342.06;126356;1099;104201;-79
2021/08/31 07:44:09;;;;;;;6.83;3.20;;;;;;;21.49;66.62;100341.03;126307;1099;104149;-79
2021/08/31 07:46:46;;;;;;;;;;;;;;;21.65;60.61;100342.59;126352;1096;104316;-79
2021/08/31 07:49:17;;;;;;;7.13;3.00;;;;;;;21.81;64.60;100335.27;126295;1096;104137;-77
2021/08/31 07:51:50;;;;;;;9.97;3.30;;;;;;;21.94;64.25;100332.43;126208;1096;104596;-78
2021/08/31 07:54:23;;;;;;;5.87;3.10;;;;;;;22.04;63.47;100332.28;126210;1096;104245;-79
2021/08/31 07:56:55;;;;;;;;;;;;;;;22.14;60.68;100330.34;126283;1099;104137;-78
2021/08/31 07:59:26;;;;;;;5.25;3.00;;;;;;;22.23;61.40;100330.22;126297;1099;104393;-77
2021/08/31 08:01:58;;;;;;;7.80;3.27;;;;;;;22.33;61.92;100322.09;126309;1099;104140;-80
2021/08/31 08:04:32;;;;;;;5.27;3.10;;;;;;;22.41;60.95;100323.75;126312;1096;105469;-80
2021/08/31 08:07:10;;;;;;;10.27;3.13;;;;;;;22.52;61.01;100322.70;126338;1096;104146;-78
2021/08/31 08:09:41;;;;;;;6.10;2.90;;;;;;;22.51;59.58;100319.13;126333;1096;104181;-78
2021/08/31 08:12:13;;;;;;;6.17;3.37;;;;;;;22.68;59.46;100318.84;126336;1098;104650;-78
2021/08/31 08:14:44;;;;;;;4.40;2.90;;;;;;;22.79;59.29;100308.84;126308;1096;104213;-78
2021/08/31 08:17:15;;;;;;;9.73;3.03;;;;;;;22.86;59.51;100309.63;126342;1099;104146;-79
2021/08/31 08:19:48;;;;;;;8.07;3.33;;;;;;;22.95;58.57;100309.47;126373;1099;104182;-80
2021/08/31 08:22:20;;;;;;;5.40;3.20;;;;;;;23.03;57.57;100311.09;126333;1099;104140;-80
2021/08/31 08:24:52;;;;;;;9.87;3.07;;;;;;;23.11;57.68;100315.44;126261;1099;104297;-79
2021/08/31 08:27:23;;;;;;;6.73;2.97;;;;;;;23.19;57.73;100317.06;126366;1099;104136;-79
2021/08/31 08:29:54;;;;;;;7.53;2.80;;;;;;;23.25;56.92;100309.83;126339;1099;104178;-79
2021/08/31 08:32:25;;;;;;;6.73;3.00;;;;;;;23.30;56.26;100309.73;126353;1099;104171;-80
2021/08/31 08:34:58;;;;;;;8.23;3.00;;;;;;;23.28;56.39;100309.77;126287;1099;104270;-79
2021/08/31 08:37:31;;;;;;;7.23;2.93;;;;;;;23.28;56.29;100307.09;126330;1099;104268;-77
2021/08/31 08:40:04;;;;;;;7.10;2.97;;;;;;;23.36;55.79;100304.26;126337;1098;104134;-79
2021/08/31 08:42:35;;;;;;;5.93;2.87;;;;;;;23.40;55.85;100294.36;126349;1099;104236;-77
2021/08/31 08:45:09;;;;;;;7.17;2.60;;;;;;;23.43;55.17;100295.16;126203;1099;104188;-79
2021/08/31 08:47:41;;;;;;;3.90;2.60;;;;;;;23.50;54.75;100306.66;126351;1099;104235;-79
2021/08/31 08:50:14;;;;;;;4.53;2.80;;;;;;;23.53;55.50;100295.88;126331;1098;105198;-80
2021/08/31 08:52:46;;;;;;;5.30;2.70;;;;;;;23.51;53.27;100293.23;126341;1099;104226;-78
2021/08/31 08:55:17;;;;;;;5.13;3.13;;;;;;;23.51;54.07;100292.33;126236;1099;104268;-78
2021/08/31 08:57:48;;;;;;;5.23;2.90;;;;;;;23.58;53.91;100287.75;126360;1099;101897;-79
2021/08/31 09:01:00;;;;;;;5.43;2.90;;;;;;;23.63;52.28;100289.39;126297;1099;104197;-77
2021/08/31 09:03:34;;;;;;;4.67;2.87;;;;;;;23.72;52.56;100291.00;126236;1099;104146;-78
2021/08/31 09:06:19;;;;;;;5.27;2.80;;;;;;;23.72;53.06;100282.97;126311;1099;104322;-78
2021/08/31 09:09:03;;;;;;;5.40;2.67;;;;;;;23.67;51.50;100283.06;126339;1099;104163;-79
2021/08/31 09:11:37;;;;;;;4.53;2.60;;;;;;;23.66;51.83;100281.30;126334;1099;104142;-79
2021/08/31 09:14:22;;;;;;;5.10;2.70;;;;;;;23.67;51.52;100276.84;126362;1099;104223;-79
2021/08/31 09:16:56;;;;;;;4.77;2.87;;;;;;;23.72;51.43;100284.74;126383;1097;104804;-78
2021/08/31 09:19:34;;;;;;;4.23;2.60;;;;;;;23.76;51.47;100273.92;126342;1099;104194;-78
2021/08/31 09:22:17;;;;;;;7.10;2.60;;;;;;;23.82;51.91;100275.59;126344;1099;104248;-78
2021/08/31 09:25:07;;;;;;;7.20;2.98;;;;;;;23.88;50.85;100278.17;126309;1099;104156;-77
2021/08/31 09:27:41;;;;;;;5.40;2.50;;;;;;;23.96;51.07;100280.67;126352;1096;117959;-79
2021/08/31 09:30:26;;;;;;;3.00;2.70;;;;;;;24.06;50.62;100279.56;126328;1099;104155;-78
2021/08/31 09:33:12;;;;;;;4.93;2.53;;;;;;;24.08;48.76;100274.16;126369;1096;104273;-78
2021/08/31 09:35:45;;;;;;;3.93;2.70;;;;;;;24.09;50.08;100267.86;126289;1096;104232;-79
2021/08/31 09:38:19;;;;;;;5.43;2.80;;;;;;;24.04;49.72;100266.20;126329;1098;104174;-79
2021/08/31 09:40:53;;;;;;;5.67;2.70;;;;;;;24.01;49.44;100262.69;126339;1099;104239;-79
2021/08/31 09:43:25;;;;;;;3.53;2.70;;;;;;;23.98;49.28;100262.75;126290;1099;104351;-79
2021/08/31 09:45:57;;;;;;;5.83;2.80;;;;;;;23.97;49.09;100259.20;126300;1099;104137;-78
2021/08/31 09:48:28;;;;;;;4.00;2.60;;;;;;;24.01;49.24;100252.87;126335;1096;104216;-79
2021/08/31 09:50:59;;;;;;;4.10;2.60;;;;;;;24.06;49.50;100252.76;126371;1096;104166;-79
2021/08/31 09:53:36;;;;;;;7.15;2.85;;;;;;;24.13;49.43;100242.76;126352;1099;104137;-78
2021/08/31 09:56:10;;;;;;;7.53;2.73;;;;;;;24.24;49.17;100246.05;126288;1096;104297;-79
2021/08/31 09:58:42;;;;;;;6.40;3.03;;;;;;;24.31;48.43;100246.77;126371;1099;104724;-78
2021/08/31 10:01:14;;;;;;;9.28;3.02;;;;;;;24.38;49.26;100243.02;126361;1099;104303;-79
2021/08/31 10:03:47;;;;;;;6.07;2.90;;;;;;;24.45;48.93;100244.64;126367;1099;104189;-78
2021/08/31 10:06:19;;;;;;;8.50;3.43;;;;;;;24.50;48.59;100241.84;126311;1098;104178;-78
2021/08/31 10:08:51;;;;;;;2.87;2.40;;;;;;;24.46;46.67;100246.38;126332;1096;104597;-78
2021/08/31 10:11:25;;;;;;;4.97;2.40;;;;;;;24.47;47.07;100244.60;126371;1096;104341;-77
2021/08/31 10:13:57;;;;;;;2.90;2.40;;;;;;;24.44;46.01;100242.00;126333;1096;104146;-78
2021/08/31 10:16:29;;;;;;;2.80;2.40;;;;;;;24.40;45.60;100235.81;126317;1099;104202;-78
2021/08/31 10:19:00;;;;;;;2.80;2.27;;;;;;;24.51;46.49;100236.44;126276;1099;104156;-78
2021/08/31 10:21:34;;;;;;;3.10;2.20;;;;;;;24.67;46.06;100238.75;126302;1099;104293;-78
2021/08/31 10:24:07;;;;;;;2.40;2.20;;;;;;;24.71;46.11;100238.62;126373;1099;104149;-78
2021/08/31 10:26:40;;;;;;;3.77;2.40;;;;;;;24.76;46.51;100236.69;126260;1099;104258;-79
2021/08/31 10:29:27;;;;;;;5.97;2.43;;;;;;;24.87;46.10;100236.41;126316;1099;104230;-78
2021/08/31 10:32:00;;;;;;;2.70;2.23;;;;;;;24.93;45.75;100240.70;126315;1099;104239;-78
2021/08/31 10:34:45;;;;;;;1.90;1.80;;;;;;;24.97;45.65;100242.38;126315;1099;104214;-78
2021/08/31 10:37:18;;;;;;;2.47;2.10;;;;;;;24.99;46.03;100237.84;126297;1099;104137;-79
2021/08/31 10:39:52;;;;;;;5.08;2.22;;;;;;;24.80;44.92;100245.53;126336;1099;104153;-79
2021/08/31 10:42:46;;;;;;;3.55;2.40;;;;;;;24.74;44.98;100243.01;126367;1099;104255;-79
2021/08/31 10:45:36;;;;;;;2.50;2.30;;;;;;;24.82;45.12;100237.44;126330;1099;104223;-79
2021/08/31 10:48:33;;;;;;;3.77;2.30;;;;;;;24.84;45.42;100231.12;126219;1097;104361;-79
2021/08/31 10:51:07;;;;;;;2.20;2.10;;;;;;;24.89;45.40;100234.55;126303;1099;104236;-80
2021/08/31 10:53:42;;;;;;;5.15;2.37;;;;;;;24.98;45.21;100236.10;126327;1099;104259;-78
2021/08/31 10:56:30;;;;;;;2.43;2.20;;;;;;;25.08;45.37;100228.66;126370;1099;104245;-79
2021/08/31 10:59:03;;;;;;;2.45;2.20;;;;;;;25.17;44.71;100232.90;126282;1099;104147;-78
2021/08/31 11:01:41;;;;;;;3.13;2.30;;;;;;;25.25;44.60;100231.73;126350;1098;104136;-78
2021/08/31 11:04:29;;;;;;;2.40;2.20;;;;;;;25.32;44.40;100231.58;126370;1099;104159;-78
2021/08/31 11:07:02;;;;;;;3.60;2.33;;;;;;;25.42;43.46;100230.40;126249;1099;105376;-78
2021/08/31 11:09:35;;;;;;;2.55;2.35;;;;;;;25.46;43.45;100240.10;126296;1099;104190;-78
2021/08/31 11:12:12;;;;;;;3.07;2.40;;;;;;;25.39;43.11;100231.36;126348;1098;104304;-78
2021/08/31 11:14:53;;;;;;;2.43;2.20;;;;;;;25.50;43.65;100228.35;126283;1099;104363;-79
2021/08/31 11:17:41;;;;;;;5.13;2.57;;;;;;;25.63;43.37;100236.91;126264;1099;104171;-79
2021/08/31 11:20:24;;;;;;;3.43;2.57;;;;;;;25.73;42.99;100230.33;126216;1099;110899;-79
2021/08/31 11:23:06;;;;;;;5.63;2.50;;;;;;;25.74;42.50;100226.73;126355;1099;104162;-78
2021/08/31 11:25:39;;;;;;;2.30;2.10;;;;;;;25.80;42.47;100221.16;126331;1096;104153;-78
2021/08/31 11:28:12;;;;;;;5.03;2.50;;;;;;;25.89;42.57;100221.78;126286;1099;104160;-78
2021/08/31 11:30:54;;;;;;;3.60;2.50;;;;;;;25.93;41.89;100229.70;126362;1099;104204;-78
2021/08/31 11:33:28;;;;;;;2.77;2.50;;;;;;;26.02;42.26;100223.16;126353;1096;104309;-77